sensor_id;sensor_type;location;lat;lon;timestamp;pressure;altitude;pressure_sealevel;temperature;humidity
4024;BME280;2026;51.002;13.668;2023-07-28T00:01:52;98024.78;;;18.25;97.79
4024;BME280;2026;51.002;13.668;2023-07-28T00:06:57;98031.91;;;18.26;97.05
4024;BME280;2026;51.002;13.668;2023-07-28T00:12:00;98019.31;;;18.39;96.82
4024;BME280;2026;51.002;13.668;2023-07-28T00:17:03;98019.50;;;18.44;95.48
4024;BME280;2026;51.002;13.668;2023-07-28T00:22:08;98013.84;;;18.52;94.85
4024;BME280;2026;51.002;13.668;2023-07-28T00:27:11;98000.84;;;18.54;94.46
4024;BME280;2026;51.002;13.668;2023-07-28T00:32:18;97996.22;;;18.54;94.35
4024;BME280;2026;51.002;13.668;2023-07-28T00:37:23;97999.16;;;18.53;94.86
4024;BME280;2026;51.002;13.668;2023-07-28T00:42:26;97993.91;;;18.45;94.68
4024;BME280;2026;51.002;13.668;2023-07-28T00:47:29;97992.03;;;18.65;93.44
4024;BME280;2026;51.002;13.668;2023-07-28T00:52:34;97984.91;;;18.64;92.60
4024;BME280;2026;51.002;13.668;2023-07-28T00:57:37;97986.75;;;18.70;92.79
4024;BME280;2026;51.002;13.668;2023-07-28T01:02:41;97981.13;;;18.65;92.79
4024;BME280;2026;51.002;13.668;2023-07-28T01:07:49;97977.31;;;18.60;92.66
4024;BME280;2026;51.002;13.668;2023-07-28T01:12:55;97979.44;;;18.64;93.91
4024;BME280;2026;51.002;13.668;2023-07-28T01:17:58;97978.16;;;18.60;94.50
4024;BME280;2026;51.002;13.668;2023-07-28T01:23:09;97981.72;;;18.61;94.06
4024;BME280;2026;51.002;13.668;2023-07-28T01:28:15;97975.03;;;18.56;95.21
4024;BME280;2026;51.002;13.668;2023-07-28T01:33:19;97977.53;;;18.58;95.13
4024;BME280;2026;51.002;13.668;2023-07-28T01:38:22;97986.13;;;18.48;97.21
4024;BME280;2026;51.002;13.668;2023-07-28T01:43:26;97984.91;;;18.38;99.17
4024;BME280;2026;51.002;13.668;2023-07-28T01:48:29;97985.53;;;18.53;98.98
4024;BME280;2026;51.002;13.668;2023-07-28T01:53:33;97982.81;;;18.40;100.00
4024;BME280;2026;51.002;13.668;2023-07-28T01:58:37;97989.94;;;18.41;98.68
4024;BME280;2026;51.002;13.668;2023-07-28T02:03:40;97976.72;;;18.38;99.05
4024;BME280;2026;51.002;13.668;2023-07-28T02:08:43;97983.88;;;18.32;100.00
4024;BME280;2026;51.002;13.668;2023-07-28T02:13:48;97984.91;;;18.38;100.00
4024;BME280;2026;51.002;13.668;2023-07-28T02:18:52;97985.75;;;18.32;100.00
4024;BME280;2026;51.002;13.668;2023-07-28T02:23:55;97984.47;;;18.21;100.00
4024;BME280;2026;51.002;13.668;2023-07-28T02:28:59;97978.63;;;18.24;100.00
4024;BME280;2026;51.002;13.668;2023-07-28T02:34:02;97985.31;;;18.35;100.00
4024;BME280;2026;51.002;13.668;2023-07-28T02:39:05;97981.13;;;18.12;100.00
4024;BME280;2026;51.002;13.668;2023-07-28T02:44:10;97980.72;;;18.29;100.00
4024;BME280;2026;51.002;13.668;2023-07-28T02:49:13;97972.34;;;18.23;100.00
4024;BME280;2026;51.002;13.668;2023-07-28T02:54:16;97970.00;;;18.20;100.00
4024;BME280;2026;51.002;13.668;2023-07-28T02:59:21;97961.84;;;18.27;100.00
4024;BME280;2026;51.002;13.668;2023-07-28T03:04:25;97959.13;;;18.20;100.00
4024;BME280;2026;51.002;13.668;2023-07-28T03:09:48;97970.66;;;18.36;100.00
4024;BME280;2026;51.002;13.668;2023-07-28T03:14:52;97967.09;;;18.29;100.00
4024;BME280;2026;51.002;13.668;2023-07-28T03:19:55;97969.84;;;18.22;100.00
4024;BME280;2026;51.002;13.668;2023-07-28T03:24:58;97982.41;;;18.23;100.00
4024;BME280;2026;51.002;13.668;2023-07-28T03:30:04;97995.84;;;18.24;100.00
4024;BME280;2026;51.002;13.668;2023-07-28T03:35:09;97991.84;;;18.27;100.00
4024;BME280;2026;51.002;13.668;2023-07-28T03:40:18;97986.38;;;18.34;99.69
4024;BME280;2026;51.002;13.668;2023-07-28T03:45:26;98000.44;;;18.31;99.99
4024;BME280;2026;51.002;13.668;2023-07-28T03:50:29;97990.78;;;18.35;99.62
4024;BME280;2026;51.002;13.668;2023-07-28T03:55:32;98004.41;;;18.35;99.33
4024;BME280;2026;51.002;13.668;2023-07-28T04:00:37;97994.13;;;18.37;99.46
4024;BME280;2026;51.002;13.668;2023-07-28T04:05:40;97991.19;;;18.45;98.83
4024;BME280;2026;51.002;13.668;2023-07-28T04:10:43;97991.84;;;18.34;98.38
4024;BME280;2026;51.002;13.668;2023-07-28T04:15:47;97999.16;;;18.46;97.77
4024;BME280;2026;51.002;13.668;2023-07-28T04:20:50;97996.84;;;18.50;97.97
4024;BME280;2026;51.002;13.668;2023-07-28T04:25:54;98004.38;;;18.48;97.64
4024;BME280;2026;51.002;13.668;2023-07-28T04:31:00;98011.09;;;18.58;96.79
4024;BME280;2026;51.002;13.668;2023-07-28T04:36:21;98015.28;;;18.61;96.98
4024;BME280;2026;51.002;13.668;2023-07-28T04:41:24;98018.25;;;18.53;97.81
4024;BME280;2026;51.002;13.668;2023-07-28T04:46:29;98013.22;;;18.63;96.13
4024;BME280;2026;51.002;13.668;2023-07-28T04:51:40;98016.34;;;18.73;95.13
4024;BME280;2026;51.002;13.668;2023-07-28T04:57:09;98016.75;;;18.83;95.24
4024;BME280;2026;51.002;13.668;2023-07-28T05:02:18;98028.94;;;18.81;94.84
4024;BME280;2026;51.002;13.668;2023-07-28T05:07:21;98027.88;;;18.75;95.31
4024;BME280;2026;51.002;13.668;2023-07-28T05:12:24;98030.84;;;18.80;94.66
4024;BME280;2026;51.002;13.668;2023-07-28T05:17:29;98029.31;;;18.91;94.02
4024;BME280;2026;51.002;13.668;2023-07-28T05:22:55;98036.66;;;18.97;93.34
4024;BME280;2026;51.002;13.668;2023-07-28T05:28:02;98047.81;;;18.82;94.03
4024;BME280;2026;51.002;13.668;2023-07-28T05:33:09;98050.09;;;18.92;93.33
4024;BME280;2026;51.002;13.668;2023-07-28T05:38:21;98059.53;;;18.96;93.56
4024;BME280;2026;51.002;13.668;2023-07-28T05:43:24;98062.88;;;18.98;93.60
4024;BME280;2026;51.002;13.668;2023-07-28T05:48:31;98058.25;;;19.05;92.62
4024;BME280;2026;51.002;13.668;2023-07-28T05:53:34;98068.53;;;19.16;92.35
4024;BME280;2026;51.002;13.668;2023-07-28T05:58:40;98070.97;;;19.31;91.32
4024;BME280;2026;51.002;13.668;2023-07-28T06:03:45;98069.28;;;19.43;90.14
4024;BME280;2026;51.002;13.668;2023-07-28T06:08:55;98065.66;;;19.49;89.47
4024;BME280;2026;51.002;13.668;2023-07-28T06:13:58;98079.53;;;19.55;89.12
4024;BME280;2026;51.002;13.668;2023-07-28T06:19:03;98087.88;;;19.73;87.65
4024;BME280;2026;51.002;13.668;2023-07-28T06:24:08;98078.88;;;19.59;87.98
4024;BME280;2026;51.002;13.668;2023-07-28T06:29:11;98084.13;;;19.61;88.25
4024;BME280;2026;51.002;13.668;2023-07-28T06:34:16;98083.75;;;21.26;80.51
4024;BME280;2026;51.002;13.668;2023-07-28T06:39:19;98076.38;;;21.27;78.07
4024;BME280;2026;51.002;13.668;2023-07-28T06:44:22;98086.38;;;22.60;73.08
4024;BME280;2026;51.002;13.668;2023-07-28T06:49:27;98098.03;;;23.08;70.27
4024;BME280;2026;51.002;13.668;2023-07-28T06:54:30;98094.31;;;21.59;75.40
4024;BME280;2026;51.002;13.668;2023-07-28T06:59:33;98101.69;;;22.67;71.19
4024;BME280;2026;51.002;13.668;2023-07-28T07:04:38;98092.97;;;23.40;68.52
4024;BME280;2026;51.002;13.668;2023-07-28T07:09:41;98096.88;;;23.68;66.94
4024;BME280;2026;51.002;13.668;2023-07-28T07:14:44;98105.56;;;22.90;68.54
4024;BME280;2026;51.002;13.668;2023-07-28T07:19:48;98106.56;;;22.23;71.63
4024;BME280;2026;51.002;13.668;2023-07-28T07:24:51;98107.81;;;23.28;68.23
4024;BME280;2026;51.002;13.668;2023-07-28T07:29:54;98110.69;;;22.44;70.92
4024;BME280;2026;51.002;13.668;2023-07-28T07:34:59;98122.84;;;22.37;70.69
4024;BME280;2026;51.002;13.668;2023-07-28T07:40:02;98119.56;;;21.98;71.34
4024;BME280;2026;51.002;13.668;2023-07-28T07:45:06;98124.84;;;22.30;71.50
4024;BME280;2026;51.002;13.668;2023-07-28T07:50:11;98130.53;;;22.58;69.60
4024;BME280;2026;51.002;13.668;2023-07-28T07:55:15;98123.09;;;23.00;68.55
4024;BME280;2026;51.002;13.668;2023-07-28T08:00:18;98141.53;;;22.70;68.02
4024;BME280;2026;51.002;13.668;2023-07-28T08:05:23;98128.53;;;22.77;69.67
4024;BME280;2026;51.002;13.668;2023-07-28T08:10:26;98135.63;;;22.43;69.92
4024;BME280;2026;51.002;13.668;2023-07-28T08:15:29;98129.25;;;22.61;69.59
4024;BME280;2026;51.002;13.668;2023-07-28T08:20:34;98133.50;;;23.22;68.21
4024;BME280;2026;51.002;13.668;2023-07-28T08:25:37;98129.91;;;22.86;68.81
4024;BME280;2026;51.002;13.668;2023-07-28T08:30:40;98141.59;;;22.51;67.50
4024;BME280;2026;51.002;13.668;2023-07-28T08:35:44;98135.69;;;22.66;68.26
4024;BME280;2026;51.002;13.668;2023-07-28T08:40:47;98137.97;;;22.28;69.75
4024;BME280;2026;51.002;13.668;2023-07-28T08:45:52;98156.00;;;22.77;69.54
4024;BME280;2026;51.002;13.668;2023-07-28T08:50:57;98152.78;;;22.38;69.66
4024;BME280;2026;51.002;13.668;2023-07-28T08:56:00;98162.03;;;22.25;69.80
4024;BME280;2026;51.002;13.668;2023-07-28T09:01:07;98165.44;;;22.39;69.89
4024;BME280;2026;51.002;13.668;2023-07-28T09:06:12;98178.69;;;22.42;100.00
4024;BME280;2026;51.002;13.668;2023-07-28T09:11:16;98167.34;;;22.09;71.70
4024;BME280;2026;51.002;13.668;2023-07-28T09:16:20;98175.91;;;22.31;70.22
4024;BME280;2026;51.002;13.668;2023-07-28T09:21:25;98182.97;;;22.38;70.14
4024;BME280;2026;51.002;13.668;2023-07-28T09:26:36;98187.53;;;22.44;70.28
4024;BME280;2026;51.002;13.668;2023-07-28T09:31:39;98193.91;;;22.86;69.98
4024;BME280;2026;51.002;13.668;2023-07-28T09:36:44;98190.09;;;22.88;68.93
4024;BME280;2026;51.002;13.668;2023-07-28T09:41:47;98192.53;;;23.31;68.22
4024;BME280;2026;51.002;13.668;2023-07-28T09:46:51;98192.88;;;23.69;65.59
4024;BME280;2026;51.002;13.668;2023-07-28T09:52:02;98192.19;;;23.62;66.51
4024;BME280;2026;51.002;13.668;2023-07-28T09:57:09;98196.59;;;23.52;66.22
4024;BME280;2026;51.002;13.668;2023-07-28T10:02:14;98196.94;;;23.32;66.38
4024;BME280;2026;51.002;13.668;2023-07-28T10:07:19;98203.88;;;23.23;67.67
4024;BME280;2026;51.002;13.668;2023-07-28T10:12:24;98204.38;;;23.43;66.12
4024;BME280;2026;51.002;13.668;2023-07-28T10:17:31;98205.69;;;23.75;66.36
4024;BME280;2026;51.002;13.668;2023-07-28T10:22:44;98195.22;;;24.13;65.72
4024;BME280;2026;51.002;13.668;2023-07-28T10:27:47;98203.81;;;24.16;65.08
4024;BME280;2026;51.002;13.668;2023-07-28T10:32:55;98192.66;;;24.63;64.15
4024;BME280;2026;51.002;13.668;2023-07-28T10:38:32;98208.25;;;25.02;63.16
4024;BME280;2026;51.002;13.668;2023-07-28T10:43:36;98198.69;;;25.22;61.88
4024;BME280;2026;51.002;13.668;2023-07-28T10:48:44;98197.31;;;25.58;59.31
4024;BME280;2026;51.002;13.668;2023-07-28T10:53:51;98207.25;;;25.09;60.24
4024;BME280;2026;51.002;13.668;2023-07-28T10:58:57;98200.16;;;25.46;58.02
4024;BME280;2026;51.002;13.668;2023-07-28T11:04:10;98187.63;;;25.39;58.00
4024;BME280;2026;51.002;13.668;2023-07-28T11:09:17;98201.94;;;25.91;56.44
4024;BME280;2026;51.002;13.668;2023-07-28T11:14:21;98192.94;;;26.01;55.49
4024;BME280;2026;51.002;13.668;2023-07-28T11:19:24;98191.72;;;25.91;54.60
4024;BME280;2026;51.002;13.668;2023-07-28T11:24:29;98181.75;;;25.69;55.29
4024;BME280;2026;51.002;13.668;2023-07-28T11:29:32;98183.63;;;26.29;54.80
4024;BME280;2026;51.002;13.668;2023-07-28T11:34:36;98186.31;;;26.40;53.29
4024;BME280;2026;51.002;13.668;2023-07-28T11:39:40;98188.78;;;26.64;51.83
4024;BME280;2026;51.002;13.668;2023-07-28T11:44:43;98188.78;;;26.64;51.83
4024;BME280;2026;51.002;13.668;2023-07-28T11:49:47;98189.69;;;26.74;52.16
4024;BME280;2026;51.002;13.668;2023-07-28T11:54:52;98189.69;;;26.74;52.16
4024;BME280;2026;51.002;13.668;2023-07-28T11:59:55;98189.69;;;26.74;52.16
4024;BME280;2026;51.002;13.668;2023-07-28T12:04:59;98189.69;;;26.74;52.16
4024;BME280;2026;51.002;13.668;2023-07-28T12:10:07;98193.03;;;26.06;50.52
4024;BME280;2026;51.002;13.668;2023-07-28T12:15:23;98200.53;;;26.10;50.55
4024;BME280;2026;51.002;13.668;2023-07-28T12:20:35;98213.03;;;26.35;51.26
4024;BME280;2026;51.002;13.668;2023-07-28T12:25:42;98213.03;;;26.35;51.26
4024;BME280;2026;51.002;13.668;2023-07-28T12:30:46;61317.47;;;-145.62;100.00
4024;BME280;2026;51.002;13.668;2023-07-28T12:35:51;61317.47;;;-145.62;100.00
4024;BME280;2026;51.002;13.668;2023-07-28T12:40:55;61317.47;;;-145.62;100.00
4024;BME280;2026;51.002;13.668;2023-07-28T12:46:01;61317.47;;;-145.62;100.00
4024;BME280;2026;51.002;13.668;2023-07-28T12:51:07;61317.47;;;-145.62;100.00
4024;BME280;2026;51.002;13.668;2023-07-28T12:56:12;61317.47;;;-145.62;100.00
4024;BME280;2026;51.002;13.668;2023-07-28T13:01:37;61317.47;;;-145.62;100.00
4024;BME280;2026;51.002;13.668;2023-07-28T13:06:40;61317.47;;;-145.62;100.00
4024;BME280;2026;51.002;13.668;2023-07-28T13:11:45;61317.47;;;-145.62;100.00
4024;BME280;2026;51.002;13.668;2023-07-28T13:16:51;61317.47;;;-145.62;100.00
4024;BME280;2026;51.002;13.668;2023-07-28T13:21:54;61317.47;;;-145.62;100.00
4024;BME280;2026;51.002;13.668;2023-07-28T13:26:58;61317.47;;;-145.62;100.00
4024;BME280;2026;51.002;13.668;2023-07-28T13:32:01;61317.47;;;-145.62;100.00
4024;BME280;2026;51.002;13.668;2023-07-28T13:37:05;61317.47;;;-145.62;100.00
4024;BME280;2026;51.002;13.668;2023-07-28T13:42:09;61317.47;;;-145.62;100.00
4024;BME280;2026;51.002;13.668;2023-07-28T13:47:13;61317.47;;;-145.62;100.00
4024;BME280;2026;51.002;13.668;2023-07-28T13:52:16;61317.47;;;-145.62;100.00
4024;BME280;2026;51.002;13.668;2023-07-28T13:57:24;61317.47;;;-145.62;100.00
4024;BME280;2026;51.002;13.668;2023-07-28T14:02:27;61317.47;;;-145.62;100.00
4024;BME280;2026;51.002;13.668;2023-07-28T14:07:31;61317.47;;;-145.62;100.00
4024;BME280;2026;51.002;13.668;2023-07-28T14:44:13;96398.59;;;27.51;46.86
4024;BME280;2026;51.002;13.668;2023-07-28T14:49:18;98235.66;;;27.07;48.00
4024;BME280;2026;51.002;13.668;2023-07-28T14:54:21;98232.38;;;26.89;48.21
4024;BME280;2026;51.002;13.668;2023-07-28T14:59:26;98230.63;;;26.77;48.46
4024;BME280;2026;51.002;13.668;2023-07-28T15:04:29;98230.63;;;26.77;48.46
4024;BME280;2026;51.002;13.668;2023-07-28T15:09:32;98237.19;;;26.28;49.24
4024;BME280;2026;51.002;13.668;2023-07-28T15:14:36;98237.19;;;26.28;49.24
4024;BME280;2026;51.002;13.668;2023-07-28T15:19:39;98260.81;;;25.29;56.50
4024;BME280;2026;51.002;13.668;2023-07-28T15:24:42;98260.81;;;25.29;56.50
4024;BME280;2026;51.002;13.668;2023-07-28T15:29:47;98260.81;;;25.29;56.50
4024;BME280;2026;51.002;13.668;2023-07-28T15:34:50;98260.81;;;-145.61;56.50
4024;BME280;2026;51.002;13.668;2023-07-28T15:39:53;73295.97;;;-145.61;56.50
4024;BME280;2026;51.002;13.668;2023-07-28T15:44:57;98260.81;;;25.29;56.50
4024;BME280;2026;51.002;13.668;2023-07-28T15:50:00;61317.47;;;-145.62;100.00
4024;BME280;2026;51.002;13.668;2023-07-28T15:55:04;72852.91;;;-145.62;56.50
4024;BME280;2026;51.002;13.668;2023-07-28T16:00:10;98260.81;;;25.29;56.50
4024;BME280;2026;51.002;13.668;2023-07-28T16:05:15;98260.81;;;23.38;56.50
4024;BME280;2026;51.002;13.668;2023-07-28T16:10:18;61459.28;;;-145.62;100.00
4024;BME280;2026;51.002;13.668;2023-07-28T16:15:23;61317.47;;;-145.62;100.00
4024;BME280;2026;51.002;13.668;2023-07-28T16:20:28;61317.47;;;-145.62;100.00
4024;BME280;2026;51.002;13.668;2023-07-28T16:25:31;61317.47;;;-145.62;100.00
4024;BME280;2026;51.002;13.668;2023-07-28T16:30:35;61317.47;;;-145.62;100.00
4024;BME280;2026;51.002;13.668;2023-07-28T16:35:38;61317.47;;;-145.62;100.00
4024;BME280;2026;51.002;13.668;2023-07-28T16:40:41;61317.47;;;-145.62;100.00
4024;BME280;2026;51.002;13.668;2023-07-28T16:45:46;61317.47;;;-145.62;100.00
4024;BME280;2026;51.002;13.668;2023-07-28T16:50:49;61317.47;;;-145.62;100.00
4024;BME280;2026;51.002;13.668;2023-07-28T16:55:52;61317.47;;;-145.62;100.00
4024;BME280;2026;51.002;13.668;2023-07-28T17:00:57;61317.47;;;-145.62;100.00
4024;BME280;2026;51.002;13.668;2023-07-28T17:06:00;61317.47;;;-145.62;100.00
4024;BME280;2026;51.002;13.668;2023-07-28T17:11:04;61317.47;;;-145.62;100.00
4024;BME280;2026;51.002;13.668;2023-07-28T17:16:08;61317.47;;;-145.62;100.00
4024;BME280;2026;51.002;13.668;2023-07-28T17:21:12;61317.47;;;-145.62;100.00
4024;BME280;2026;51.002;13.668;2023-07-28T17:26:15;61317.47;;;-145.62;100.00
4024;BME280;2026;51.002;13.668;2023-07-28T17:31:19;61317.47;;;-145.62;100.00
4024;BME280;2026;51.002;13.668;2023-07-28T17:36:22;61317.47;;;-145.62;100.00
4024;BME280;2026;51.002;13.668;2023-07-28T17:41:26;61317.47;;;-145.62;100.00
4024;BME280;2026;51.002;13.668;2023-07-28T17:46:30;61317.47;;;-145.62;100.00
4024;BME280;2026;51.002;13.668;2023-07-28T17:51:33;61317.47;;;-145.62;100.00
4024;BME280;2026;51.002;13.668;2023-07-28T17:56:37;61317.47;;;-145.62;100.00
4024;BME280;2026;51.002;13.668;2023-07-28T18:01:41;61317.47;;;-145.62;100.00
4024;BME280;2026;51.002;13.668;2023-07-28T18:06:44;61317.47;;;-145.62;100.00
4024;BME280;2026;51.002;13.668;2023-07-28T18:11:47;61317.47;;;-145.62;100.00
4024;BME280;2026;51.002;13.668;2023-07-28T18:16:52;61317.47;;;-145.62;100.00
4024;BME280;2026;51.002;13.668;2023-07-28T18:21:55;61317.47;;;-145.62;100.00
4024;BME280;2026;51.002;13.668;2023-07-28T18:26:58;61317.47;;;-145.62;100.00
4024;BME280;2026;51.002;13.668;2023-07-28T18:32:03;61317.47;;;-145.62;100.00
4024;BME280;2026;51.002;13.668;2023-07-28T18:37:06;61317.47;;;-145.62;100.00
4024;BME280;2026;51.002;13.668;2023-07-28T18:42:10;61317.47;;;-145.62;100.00
4024;BME280;2026;51.002;13.668;2023-07-28T18:47:14;61317.47;;;-145.62;100.00
4024;BME280;2026;51.002;13.668;2023-07-28T18:52:18;61317.47;;;-145.62;100.00
4024;BME280;2026;51.002;13.668;2023-07-28T18:57:21;61317.47;;;-145.62;100.00
4024;BME280;2026;51.002;13.668;2023-07-28T19:06:51;98330.06;;;23.36;64.22
4024;BME280;2026;51.002;13.668;2023-07-28T19:11:54;98331.38;;;23.33;64.90
4024;BME280;2026;51.002;13.668;2023-07-28T19:16:57;98339.66;;;23.03;65.46
4024;BME280;2026;51.002;13.668;2023-07-28T19:22:01;98338.28;;;23.24;64.60
4024;BME280;2026;51.002;13.668;2023-07-28T19:27:07;98341.56;;;23.03;65.50
4024;BME280;2026;51.002;13.668;2023-07-28T19:32:10;98344.97;;;22.86;66.09
4024;BME280;2026;51.002;13.668;2023-07-28T19:37:15;98344.56;;;22.65;67.50
4024;BME280;2026;51.002;13.668;2023-07-28T19:42:20;98347.75;;;22.80;66.49
4024;BME280;2026;51.002;13.668;2023-07-28T19:47:23;98346.91;;;22.79;67.08
4024;BME280;2026;51.002;13.668;2023-07-28T19:52:27;98354.06;;;22.80;66.85
4024;BME280;2026;51.002;13.668;2023-07-28T19:57:30;98360.06;;;22.59;67.97
4024;BME280;2026;51.002;13.668;2023-07-28T20:02:33;98364.53;;;22.53;68.38
4024;BME280;2026;51.002;13.668;2023-07-28T20:07:38;98372.03;;;22.46;68.66
4024;BME280;2026;51.002;13.668;2023-07-28T20:12:41;98370.81;;;22.42;69.10
4024;BME280;2026;51.002;13.668;2023-07-28T20:17:44;98363.66;;;22.41;70.20
4024;BME280;2026;51.002;13.668;2023-07-28T20:22:49;98379.63;;;22.26;71.05
4024;BME280;2026;51.002;13.668;2023-07-28T20:27:58;98380.88;;;22.30;71.50
4024;BME280;2026;51.002;13.668;2023-07-28T20:33:01;98381.34;;;22.27;72.11
4024;BME280;2026;51.002;13.668;2023-07-28T20:38:06;98390.22;;;22.22;72.58
4024;BME280;2026;51.002;13.668;2023-07-28T20:43:09;98386.78;;;22.09;73.22
4024;BME280;2026;51.002;13.668;2023-07-28T20:48:12;98394.09;;;22.15;72.96
4024;BME280;2026;51.002;13.668;2023-07-28T20:53:17;98397.50;;;21.85;74.35
4024;BME280;2026;51.002;13.668;2023-07-28T20:58:22;98387.66;;;22.03;72.69
4024;BME280;2026;51.002;13.668;2023-07-28T21:03:26;98401.19;;;22.04;73.03
4024;BME280;2026;51.002;13.668;2023-07-28T21:08:31;98393.16;;;21.78;74.23
4024;BME280;2026;51.002;13.668;2023-07-28T21:13:34;98397.91;;;21.89;74.03
4024;BME280;2026;51.002;13.668;2023-07-28T21:18:37;98401.00;;;21.99;72.97
4024;BME280;2026;51.002;13.668;2023-07-28T21:23:42;98393.25;;;21.89;73.71
4024;BME280;2026;51.002;13.668;2023-07-28T21:28:45;98393.38;;;21.76;74.24
4024;BME280;2026;51.002;13.668;2023-07-28T21:33:49;98403.94;;;21.73;75.05
4024;BME280;2026;51.002;13.668;2023-07-28T21:38:53;98402.88;;;21.74;75.14
4024;BME280;2026;51.002;13.668;2023-07-28T21:43:56;98405.63;;;21.74;74.82
4024;BME280;2026;51.002;13.668;2023-07-28T21:49:00;98416.22;;;21.70;74.88
4024;BME280;2026;51.002;13.668;2023-07-28T21:54:04;98418.28;;;21.68;74.90
4024;BME280;2026;51.002;13.668;2023-07-28T21:59:07;98420.41;;;21.73;74.61
4024;BME280;2026;51.002;13.668;2023-07-28T22:04:11;98421.59;;;21.52;75.82
4024;BME280;2026;51.002;13.668;2023-07-28T22:09:15;98419.75;;;21.39;76.74
4024;BME280;2026;51.002;13.668;2023-07-28T22:14:18;98428.31;;;21.56;75.52
4024;BME280;2026;51.002;13.668;2023-07-28T22:19:22;98426.00;;;21.53;75.93
4024;BME280;2026;51.002;13.668;2023-07-28T22:24:26;98421.66;;;21.45;75.81
4024;BME280;2026;51.002;13.668;2023-07-28T22:29:29;98434.25;;;21.53;75.99
4024;BME280;2026;51.002;13.668;2023-07-28T22:34:32;98429.94;;;21.32;76.39
4024;BME280;2026;51.002;13.668;2023-07-28T22:39:36;98421.75;;;21.25;76.98
4024;BME280;2026;51.002;13.668;2023-07-28T22:44:39;98427.88;;;21.21;77.69
4024;BME280;2026;51.002;13.668;2023-07-28T22:49:42;98427.88;;;21.21;77.07
4024;BME280;2026;51.002;13.668;2023-07-28T22:54:47;98431.50;;;21.08;77.72
4024;BME280;2026;51.002;13.668;2023-07-28T22:59:57;98436.38;;;20.99;77.76
4024;BME280;2026;51.002;13.668;2023-07-28T23:04:59;98438.88;;;21.08;77.88
4024;BME280;2026;51.002;13.668;2023-07-28T23:10:05;98429.19;;;21.05;77.97
4024;BME280;2026;51.002;13.668;2023-07-28T23:15:08;98439.16;;;20.93;78.22
4024;BME280;2026;51.002;13.668;2023-07-28T23:20:11;98440.84;;;20.94;78.62
4024;BME280;2026;51.002;13.668;2023-07-28T23:25:15;98435.50;;;21.12;77.88
4024;BME280;2026;51.002;13.668;2023-07-28T23:30:18;98435.50;;;22.08;77.88
4024;BME280;2026;51.002;13.668;2023-07-28T23:35:21;98435.50;;;-145.61;77.88
4024;BME280;2026;51.002;13.668;2023-07-28T23:40:26;98435.50;;;21.12;77.88
4024;BME280;2026;51.002;13.668;2023-07-28T23:45:29;98435.50;;;21.12;77.88
4024;BME280;2026;51.002;13.668;2023-07-28T23:50:32;98435.50;;;21.12;77.88
4024;BME280;2026;51.002;13.668;2023-07-28T23:55:36;98435.50;;;21.12;77.88
